Time;durP1;ratioP1;P1;durP2;ratioP2;P2;SDS_P1;SDS_P2;PMS_P1;PMS_P2;Temp;Humidity;BMP_temperature;BMP_pressure;BME280_temperature;BME280_humidity;BME280_pressure;Samples;Min_cycle;Max_cycle;Signal;HPM_P1;HPM_P2
2021/11/14 00:00:13;;;;;;;12.40;7.00;;;8.90;99.90;;;;;;5033670;28;20771;-73
2021/11/14 00:02:38;;;;;;;16.43;8.53;;;8.80;99.90;;;;;;5032310;28;20436;-74
2021/11/14 00:05:05;;;;;;;12.37;7.37;;;8.90;99.90;;;;;;5033244;28;20491;-74
2021/11/14 00:07:31;;;;;;;13.07;6.20;;;8.90;99.90;;;;;;5032902;28;20166;-74
2021/11/14 00:09:57;;;;;;;22.43;11.43;;;8.90;99.90;;;;;;5032494;28;20483;-74
2021/11/14 00:12:22;;;;;;;9.93;6.47;;;8.90;99.90;;;;;;5031933;28;20210;-74
2021/11/14 00:14:48;;;;;;;16.47;7.33;;;8.90;99.90;;;;;;5033060;28;20230;-73
2021/11/14 00:17:13;;;;;;;9.33;7.17;;;8.90;99.90;;;;;;5032667;28;20163;-74
2021/11/14 00:19:40;;;;;;;8.73;5.50;;;8.90;99.90;;;;;;5032435;28;20672;-74
2021/11/14 00:22:06;;;;;;;9.27;5.97;;;8.90;99.90;;;;;;5032481;28;20216;-74
2021/11/14 00:24:31;;;;;;;10.50;6.13;;;8.90;99.90;;;;;;5032753;28;20413;-73
2021/11/14 00:26:57;;;;;;;9.50;5.97;;;8.90;99.90;;;;;;5030747;28;20180;-74
2021/11/14 00:29:23;;;;;;;11.33;5.77;;;8.90;99.90;;;;;;5032693;28;20186;-74
2021/11/14 00:31:49;;;;;;;8.47;4.90;;;8.90;99.90;;;;;;5030747;28;20208;-74
2021/11/14 00:34:14;;;;;;;7.67;5.47;;;8.90;99.90;;;;;;5031794;28;20457;-74
2021/11/14 00:36:42;;;;;;;10.83;6.03;;;8.90;99.90;;;;;;5032449;28;20170;-74
2021/11/14 00:39:11;;;;;;;8.50;5.63;;;9.00;99.90;;;;;;5032129;28;20347;-73
2021/11/14 00:41:37;;;;;;;7.77;5.47;;;9.00;99.90;;;;;;5031565;28;20434;-73
2021/11/14 00:44:05;;;;;;;6.70;4.47;;;9.00;99.90;;;;;;5032431;28;20506;-73
2021/11/14 00:46:31;;;;;;;6.40;4.93;;;9.00;99.90;;;;;;5031944;28;20571;-74
2021/11/14 00:48:57;;;;;;;7.83;4.67;;;8.90;99.90;;;;;;5031738;28;20988;-75
2021/11/14 00:51:28;;;;;;;7.10;4.83;;;9.00;99.90;;;;;;5031342;28;20429;-74
2021/11/14 00:53:56;;;;;;;7.73;5.00;;;9.00;99.90;;;;;;5032796;28;20321;-73
2021/11/14 00:56:22;;;;;;;7.20;5.17;;;9.00;99.90;;;;;;5032714;28;20409;-72
2021/11/14 00:58:49;;;;;;;8.70;5.70;;;9.00;99.90;;;;;;5031638;28;20433;-74
2021/11/14 01:01:15;;;;;;;15.33;5.30;;;9.00;99.90;;;;;;5031296;28;20994;-74
2021/11/14 01:03:41;;;;;;;9.60;5.87;;;9.00;99.90;;;;;;5031162;28;20491;-74
2021/11/14 01:06:07;;;;;;;8.83;5.80;;;9.00;99.90;;;;;;5032231;28;20762;-73
2021/11/14 01:08:32;;;;;;;7.27;4.60;;;9.00;99.90;;;;;;5030269;28;20174;-74
2021/11/14 01:11:02;;;;;;;9.23;5.80;;;9.00;99.90;;;;;;5031429;28;20413;-74
2021/11/14 01:13:31;;;;;;;12.80;4.90;;;9.00;99.90;;;;;;5032031;28;20221;-73
2021/11/14 01:15:57;;;;;;;7.50;5.50;;;9.00;99.90;;;;;;5031866;28;20409;-73
2021/11/14 01:18:23;;;;;;;11.63;4.63;;;9.00;99.90;;;;;;5031377;28;20428;-74
2021/11/14 01:20:54;;;;;;;8.63;5.20;;;9.00;99.90;;;;;;5031844;28;20425;-74
2021/11/14 01:23:21;;;;;;;5.33;4.20;;;9.00;99.90;;;;;;5031406;28;20466;-74
2021/11/14 01:25:47;;;;;;;8.43;5.60;;;9.00;99.90;;;;;;5030651;28;20760;-73
2021/11/14 01:28:13;;;;;;;8.20;5.13;;;9.00;99.90;;;;;;5031113;28;20463;-73
2021/11/14 01:30:43;;;;;;;7.27;5.30;;;9.00;99.90;;;;;;5031180;28;20429;-73
2021/11/14 01:33:10;;;;;;;7.30;5.57;;;9.00;99.90;;;;;;5031314;28;20416;-73
2021/11/14 01:35:36;;;;;;;9.43;6.03;;;9.00;99.90;;;;;;5030071;28;20439;-72
2021/11/14 01:38:04;;;;;;;7.70;4.37;;;9.00;99.90;;;;;;5031495;28;20406;-74
2021/11/14 01:40:52;;;;;;;6.80;4.40;;;9.00;99.90;;;;;;5029941;28;20453;-74
2021/11/14 01:43:20;;;;;;;8.93;5.17;;;8.90;99.90;;;;;;5031498;28;20412;-73
2021/11/14 01:45:46;;;;;;;10.07;5.30;;;9.00;99.90;;;;;;5031082;28;20469;-74
2021/11/14 01:48:12;;;;;;;7.50;5.00;;;9.00;99.90;;;;;;5031254;28;20437;-73
2021/11/14 01:53:15;;;;;;;8.00;5.40;;;9.00;99.90;;;;;;5073162;28;20474;-72
2021/11/14 01:55:43;;;;;;;7.10;5.37;;;9.00;99.90;;;;;;5055233;28;20416;-72
2021/11/14 01:58:11;;;;;;;6.77;4.70;;;8.90;99.90;;;;;;5073676;28;20435;-73
2021/11/14 02:00:47;;;;;;;6.20;5.33;;;8.90;99.90;;;;;;5073092;28;20439;-73
2021/11/14 02:03:13;;;;;;;7.20;4.20;;;8.90;99.90;;;;;;5073818;28;20791;-72
2021/11/14 02:05:39;;;;;;;5.57;4.93;;;8.90;99.90;;;;;;5056176;28;20415;-72
2021/11/14 02:08:06;;;;;;;9.20;4.77;;;8.90;99.90;;;;;;5053911;28;20484;-73
2021/11/14 02:10:33;;;;;;;6.40;5.10;;;8.90;99.90;;;;;;5071665;28;20447;-75
2021/11/14 02:13:00;;;;;;;5.80;4.63;;;8.90;99.90;;;;;;5071245;28;20434;-71
2021/11/14 02:15:25;;;;;;;6.30;4.90;;;8.90;99.90;;;;;;5053563;28;20438;-71
2021/11/14 02:17:51;;;;;;;6.47;4.70;;;8.90;99.90;;;;;;5036428;28;20782;-71
2021/11/14 02:20:18;;;;;;;6.80;5.13;;;8.90;99.90;;;;;;5071149;28;20212;-72
2021/11/14 02:22:44;;;;;;;8.57;5.20;;;8.90;99.90;;;;;;5052636;28;20165;-72
2021/11/14 02:25:12;;;;;;;6.47;5.13;;;8.90;99.90;;;;;;5071704;28;20469;-73
2021/11/14 02:27:40;;;;;;;8.67;5.60;;;8.90;99.90;;;;;;5070892;28;20403;-73
2021/11/14 02:30:08;;;;;;;6.20;4.43;;;8.90;99.90;;;;;;5070538;28;20622;-72
2021/11/14 02:32:35;;;;;;;8.23;4.73;;;8.90;99.90;;;;;;5070776;28;20430;-73
2021/11/14 02:35:01;;;;;;;6.83;5.30;;;8.90;99.90;;;;;;5053995;28;20542;-72
2021/11/14 02:37:26;;;;;;;6.73;4.87;;;8.90;99.90;;;;;;5036582;28;20446;-72
2021/11/14 02:39:52;;;;;;;6.07;3.93;;;8.90;99.90;;;;;;5052804;28;20184;-72
2021/11/14 02:42:18;;;;;;;6.60;5.13;;;8.90;99.90;;;;;;5070225;28;20185;-72
2021/11/14 02:44:44;;;;;;;7.90;5.63;;;8.90;99.90;;;;;;5053419;28;20181;-71
2021/11/14 02:47:09;;;;;;;7.10;6.43;;;8.90;99.90;;;;;;5070989;28;20172;-72
2021/11/14 02:49:35;;;;;;;5.60;5.00;;;8.90;99.90;;;;;;5070824;28;20193;-72
2021/11/14 02:52:02;;;;;;;9.00;4.63;;;8.80;99.90;;;;;;5070415;28;20275;-73
2021/11/14 02:54:28;;;;;;;10.20;6.03;;;8.80;99.90;;;;;;5052668;28;20696;-72
2021/11/14 02:56:53;;;;;;;7.60;5.53;;;8.80;99.90;;;;;;5071131;28;20428;-72
2021/11/14 02:59:19;;;;;;;7.47;4.73;;;8.80;99.90;;;;;;5075368;28;20473;-74
2021/11/14 03:01:51;;;;;;;6.33;5.33;;;8.80;99.90;;;;;;5055710;28;20162;-72
2021/11/14 03:04:21;;;;;;;5.80;4.73;;;8.80;99.90;;;;;;5057450;28;20415;-72
2021/11/14 03:06:48;;;;;;;7.37;5.70;;;8.80;99.90;;;;;;5074879;28;20481;-72
2021/11/14 03:09:14;;;;;;;6.40;5.53;;;8.70;99.90;;;;;;5077907;28;20423;-72
2021/11/14 03:11:41;;;;;;;6.03;4.83;;;8.80;99.90;;;;;;5080288;28;20512;-72
2021/11/14 03:14:07;;;;;;;10.63;5.00;;;8.70;99.90;;;;;;5087206;28;20294;-73
2021/11/14 03:16:34;;;;;;;9.20;5.27;;;8.70;99.90;;;;;;5061572;28;20422;-71
2021/11/14 03:19:00;;;;;;;5.93;5.07;;;8.70;99.90;;;;;;5078578;28;20431;-72
2021/11/14 03:21:27;;;;;;;6.67;4.83;;;8.70;99.90;;;;;;5078299;28;20984;-74
2021/11/14 03:23:54;;;;;;;5.13;4.27;;;8.70;99.90;;;;;;5059064;28;20446;-72
2021/11/14 03:26:20;;;;;;;7.80;5.80;;;8.70;99.90;;;;;;5040260;28;20847;-73
2021/11/14 03:28:47;;;;;;;5.27;4.70;;;8.80;99.90;;;;;;5073445;28;20454;-72
2021/11/14 03:31:14;;;;;;;4.93;4.13;;;8.80;99.90;;;;;;5073851;28;20418;-73
2021/11/14 03:33:41;;;;;;;7.57;5.67;;;8.70;99.90;;;;;;5074117;28;20500;-72
2021/11/14 03:36:12;;;;;;;10.67;4.60;;;8.80;99.90;;;;;;5074562;28;20448;-70
2021/11/14 03:38:59;;;;;;;4.90;4.03;;;8.70;99.90;;;;;;5055415;28;20415;-72
2021/11/14 03:41:30;;;;;;;5.80;4.83;;;8.70;99.90;;;;;;5074534;28;20422;-71
2021/11/14 03:43:56;;;;;;;9.17;5.23;;;8.80;99.90;;;;;;5080944;28;20408;-71
2021/11/14 03:46:23;;;;;;;5.50;4.27;;;8.80;99.90;;;;;;5064050;28;20836;-71
2021/11/14 03:48:51;;;;;;;7.93;4.97;;;8.80;99.90;;;;;;5081469;28;20439;-70
2021/11/14 03:51:18;;;;;;;5.17;4.17;;;8.80;99.90;;;;;;5075720;28;20793;-71
2021/11/14 03:53:44;;;;;;;6.63;4.73;;;8.80;99.90;;;;;;5074637;28;20482;-73
2021/11/14 03:56:10;;;;;;;5.83;4.83;;;8.80;99.90;;;;;;5082319;28;20415;-71
2021/11/14 03:58:37;;;;;;;6.73;4.80;;;8.80;99.90;;;;;;5052592;28;20858;-71
2021/11/14 04:01:09;;;;;;;5.97;4.40;;;8.80;99.90;;;;;;5072800;28;20193;-71
2021/11/14 04:03:36;;;;;;;5.10;4.60;;;8.80;99.90;;;;;;5054749;28;20411;-71
2021/11/14 04:06:03;;;;;;;5.70;5.10;;;8.80;99.90;;;;;;5073180;28;20407;-74
2021/11/14 04:08:28;;;;;;;7.63;5.00;;;8.80;99.90;;;;;;5071659;28;20459;-71
2021/11/14 04:10:57;;;;;;;7.10;4.57;;;8.90;99.90;;;;;;5071279;28;20576;-72
2021/11/14 04:13:23;;;;;;;5.70;4.57;;;8.90;99.90;;;;;;5072902;28;20287;-72
2021/11/14 04:15:49;;;;;;;6.07;4.30;;;8.80;99.90;;;;;;5072665;28;20630;-71
2021/11/14 04:18:15;;;;;;;7.10;5.00;;;8.80;99.90;;;;;;5071960;28;20477;-72
2021/11/14 04:20:43;;;;;;;5.93;4.70;;;8.80;99.90;;;;;;5053226;28;20427;-73
2021/11/14 04:23:11;;;;;;;7.70;4.83;;;8.80;99.90;;;;;;5072800;28;20411;-72
2021/11/14 04:25:38;;;;;;;6.43;4.93;;;8.80;99.90;;;;;;5072321;28;20965;-72
2021/11/14 04:28:06;;;;;;;5.70;4.60;;;8.70;99.90;;;;;;5072866;28;20912;-72
2021/11/14 04:30:32;;;;;;;6.67;4.47;;;8.80;99.90;;;;;;5071508;28;20443;-72
2021/11/14 04:32:58;;;;;;;8.80;5.40;;;8.80;99.90;;;;;;5072079;28;20439;-72
2021/11/14 04:35:24;;;;;;;8.40;4.70;;;8.80;99.90;;;;;;5072323;28;20400;-72
2021/11/14 04:37:51;;;;;;;7.10;5.23;;;8.80;99.90;;;;;;5072892;28;20570;-72
2021/11/14 04:40:19;;;;;;;9.57;4.70;;;8.80;99.90;;;;;;5072795;28;20196;-72
2021/11/14 04:42:45;;;;;;;9.97;5.40;;;8.80;99.90;;;;;;5072443;28;20431;-72
2021/11/14 04:45:12;;;;;;;5.43;4.10;;;8.80;99.90;;;;;;5072172;28;20430;-72
2021/11/14 04:47:37;;;;;;;7.03;4.90;;;8.80;99.90;;;;;;5054456;28;20789;-72
2021/11/14 04:50:06;;;;;;;7.30;5.03;;;8.80;99.90;;;;;;5054119;28;20447;-72
2021/11/14 04:52:31;;;;;;;6.10;4.73;;;8.80;99.90;;;;;;5052857;28;20216;-72
2021/11/14 04:54:57;;;;;;;6.67;5.13;;;8.80;99.90;;;;;;5072363;28;21163;-71
2021/11/14 04:57:23;;;;;;;6.87;4.60;;;8.80;99.90;;;;;;5038570;28;20299;-71
2021/11/14 04:59:49;;;;;;;5.80;4.23;;;8.80;99.90;;;;;;5072855;28;20186;-72
2021/11/14 05:02:15;;;;;;;4.80;4.20;;;8.80;99.90;;;;;;5053417;28;20469;-72
2021/11/14 05:04:41;;;;;;;5.57;3.90;;;8.80;99.90;;;;;;5054898;28;20510;-72
2021/11/14 05:07:08;;;;;;;7.67;4.10;;;8.70;99.60;;;;;;5054409;28;20526;-72
2021/11/14 05:09:34;;;;;;;8.53;6.07;;;8.80;99.70;;;;;;5072780;28;20446;-70
2021/11/14 05:12:00;;;;;;;7.20;4.67;;;8.70;99.80;;;;;;5053196;28;20796;-72
2021/11/14 05:14:25;;;;;;;7.87;4.87;;;8.70;99.60;;;;;;5071545;28;20453;-72
2021/11/14 05:16:51;;;;;;;6.47;4.90;;;8.70;99.50;;;;;;5073008;28;20161;-72
2021/11/14 05:19:17;;;;;;;6.63;5.43;;;8.70;99.40;;;;;;5070954;28;20242;-72
2021/11/14 05:21:43;;;;;;;7.03;4.07;;;8.70;99.50;;;;;;5071373;28;20176;-73
2021/11/14 05:24:08;;;;;;;5.77;4.77;;;8.70;99.40;;;;;;5071925;28;20226;-72
2021/11/14 05:26:35;;;;;;;6.13;4.50;;;8.70;99.20;;;;;;5071346;28;20181;-72
2021/11/14 05:29:01;;;;;;;6.10;4.53;;;8.60;99.30;;;;;;5071132;28;20541;-72
2021/11/14 05:31:27;;;;;;;4.97;4.33;;;8.60;99.30;;;;;;5071346;28;20453;-72
2021/11/14 05:33:53;;;;;;;5.77;4.23;;;8.60;99.30;;;;;;5071409;28;20475;-72
2021/11/14 05:36:18;;;;;;;6.27;4.87;;;8.60;99.30;;;;;;5053591;28;20199;-71
2021/11/14 05:38:44;;;;;;;5.90;4.00;;;8.50;99.20;;;;;;5052614;28;20160;-71
2021/11/14 05:41:10;;;;;;;6.07;4.77;;;8.50;99.30;;;;;;5070919;28;20169;-71
2021/11/14 05:43:35;;;;;;;6.90;4.50;;;8.40;99.20;;;;;;5071419;28;20264;-71
2021/11/14 05:46:01;;;;;;;6.40;4.93;;;8.30;99.20;;;;;;5053434;28;20176;-72
2021/11/14 05:48:27;;;;;;;5.70;4.33;;;8.20;99.30;;;;;;5071561;28;20169;-72
2021/11/14 05:50:53;;;;;;;6.50;4.30;;;8.10;99.40;;;;;;5070671;28;20299;-72
2021/11/14 05:53:19;;;;;;;5.90;4.60;;;8.10;99.50;;;;;;5053286;28;20261;-72
2021/11/14 05:55:45;;;;;;;14.20;5.30;;;8.00;99.50;;;;;;5071937;28;20746;-72
2021/11/14 05:58:15;;;;;;;6.60;5.43;;;8.00;99.70;;;;;;5053252;28;20415;-73
2021/11/14 06:05:38;;;;;;;7.07;4.90;;;8.00;99.90;;;;;;5070635;28;20403;-71
2021/11/14 06:08:05;;;;;;;7.63;5.30;;;8.00;99.90;;;;;;5069923;28;20415;-72
2021/11/14 06:10:32;;;;;;;8.73;6.10;;;8.00;99.90;;;;;;5051232;28;20435;-74
2021/11/14 06:12:58;;;;;;;6.97;5.33;;;8.10;99.90;;;;;;5071248;28;20395;-72
2021/11/14 06:15:24;;;;;;;5.87;4.70;;;8.10;99.90;;;;;;5053193;28;20711;-72
2021/11/14 06:17:50;;;;;;;6.80;5.20;;;8.20;99.90;;;;;;5052613;28;20423;-73
2021/11/14 06:20:17;;;;;;;7.80;6.00;;;8.20;99.80;;;;;;5070938;28;20422;-71
2021/11/14 06:22:43;;;;;;;5.97;4.90;;;8.20;99.70;;;;;;5070779;28;20819;-73
2021/11/14 06:25:09;;;;;;;7.70;5.80;;;8.20;99.70;;;;;;5052498;28;20431;-73
2021/11/14 06:27:36;;;;;;;9.13;6.00;;;8.20;99.60;;;;;;5052209;28;20623;-71
2021/11/14 06:30:08;;;;;;;6.40;5.50;;;8.20;99.60;;;;;;5052675;28;20427;-72
2021/11/14 06:32:34;;;;;;;7.47;6.10;;;8.30;99.60;;;;;;5051800;28;20780;-72
2021/11/14 06:34:59;;;;;;;7.63;5.60;;;8.30;99.60;;;;;;5070404;28;20451;-72
2021/11/14 06:37:26;;;;;;;8.47;5.83;;;8.30;99.50;;;;;;5070538;28;20172;-71
2021/11/14 06:39:52;;;;;;;8.13;5.90;;;8.30;99.60;;;;;;5071747;28;20208;-72
2021/11/14 06:42:18;;;;;;;8.27;5.53;;;8.30;99.60;;;;;;5070385;28;20526;-72
2021/11/14 06:44:44;;;;;;;6.67;4.70;;;8.30;99.30;;;;;;5072566;28;20161;-72
2021/11/14 06:47:11;;;;;;;7.23;5.07;;;8.20;99.00;;;;;;5053690;28;20427;-72
2021/11/14 06:49:37;;;;;;;7.90;5.40;;;8.20;98.80;;;;;;5072105;28;20442;-72
2021/11/14 06:52:04;;;;;;;7.80;4.87;;;8.20;99.00;;;;;;5071082;28;20435;-72
2021/11/14 06:54:30;;;;;;;6.77;4.80;;;8.20;98.70;;;;;;5035977;28;20208;-72
2021/11/14 06:56:56;;;;;;;6.27;4.83;;;8.20;98.80;;;;;;5070249;28;20545;-72
2021/11/14 06:59:22;;;;;;;4.27;3.53;;;8.20;98.60;;;;;;5051619;28;20466;-72
2021/11/14 07:01:47;;;;;;;5.17;3.93;;;8.20;98.50;;;;;;5069725;28;20418;-73
2021/11/14 07:04:13;;;;;;;6.60;4.97;;;8.20;98.60;;;;;;5035842;28;20419;-72
2021/11/14 07:06:39;;;;;;;6.13;5.30;;;8.20;98.50;;;;;;5069822;28;20375;-73
2021/11/14 07:09:07;;;;;;;5.33;4.50;;;8.20;98.50;;;;;;5051428;28;20450;-72
2021/11/14 07:11:33;;;;;;;11.00;5.50;;;8.20;98.50;;;;;;5051615;28;20183;-72
2021/11/14 07:14:00;;;;;;;10.57;4.83;;;8.20;98.60;;;;;;5070943;28;20450;-71
2021/11/14 07:16:27;;;;;;;5.13;4.50;;;8.30;98.60;;;;;;5070275;28;20422;-72
2021/11/14 07:18:54;;;;;;;7.30;5.60;;;8.30;98.50;;;;;;5071035;28;20502;-72
2021/11/14 07:21:20;;;;;;;5.80;4.67;;;8.30;98.50;;;;;;5072644;28;20473;-71
2021/11/14 07:23:46;;;;;;;5.47;4.17;;;8.30;98.50;;;;;;5074204;28;20897;-71
2021/11/14 07:26:12;;;;;;;5.80;4.90;;;8.40;98.30;;;;;;5071106;28;20415;-72
2021/11/14 07:28:37;;;;;;;6.67;5.13;;;8.40;98.30;;;;;;5069859;28;20157;-72
2021/11/14 07:31:03;;;;;;;8.57;5.47;;;8.40;98.20;;;;;;5069360;28;20207;-71
2021/11/14 07:33:29;;;;;;;6.90;4.60;;;8.40;98.20;;;;;;5070569;28;20200;-71
2021/11/14 07:35:55;;;;;;;9.03;6.23;;;8.40;98.00;;;;;;5070136;28;20383;-71
2021/11/14 07:38:20;;;;;;;8.43;5.97;;;8.50;98.20;;;;;;5070119;28;20503;-71
2021/11/14 07:40:46;;;;;;;8.73;5.00;;;8.60;98.10;;;;;;5069040;28;20189;-73
2021/11/14 07:43:12;;;;;;;7.87;5.07;;;8.60;98.00;;;;;;5052907;28;20172;-72
2021/11/14 07:45:37;;;;;;;6.57;4.00;;;8.70;98.00;;;;;;5073173;28;20157;-72
2021/11/14 07:48:04;;;;;;;7.30;4.90;;;8.70;97.80;;;;;;5054423;28;20773;-72
2021/11/14 07:50:30;;;;;;;5.13;3.97;;;8.70;97.50;;;;;;5077157;22;20304;-73
2021/11/14 07:52:58;;;;;;;5.77;3.70;;;8.70;97.20;;;;;;5054225;28;20408;-72
2021/11/14 07:55:24;;;;;;;9.23;4.40;;;8.70;97.00;;;;;;5054859;28;20456;-73
2021/11/14 07:57:49;;;;;;;5.30;4.10;;;8.80;97.00;;;;;;5053306;28;20450;-73
2021/11/14 08:00:18;;;;;;;6.60;4.10;;;8.80;97.00;;;;;;5052660;28;20189;-73
2021/11/14 08:02:44;;;;;;;4.30;3.23;;;8.90;96.60;;;;;;5053129;28;20536;-74
2021/11/14 08:05:12;;;;;;;4.60;3.80;;;8.90;96.20;;;;;;5052513;28;20420;-72
2021/11/14 08:07:38;;;;;;;8.23;4.27;;;9.00;96.40;;;;;;5033897;28;20463;-72
2021/11/14 08:10:06;;;;;;;4.43;3.70;;;9.10;96.50;;;;;;5049441;28;20452;-73
2021/11/14 08:12:32;;;;;;;5.13;3.30;;;9.20;95.50;;;;;;5051688;28;20428;-72
2021/11/14 08:14:58;;;;;;;5.67;3.37;;;9.30;95.10;;;;;;5052113;28;21042;-71
2021/11/14 08:17:24;;;;;;;3.50;3.07;;;9.30;95.40;;;;;;5053189;28;20531;-74
2021/11/14 08:19:51;;;;;;;3.30;2.70;;;9.20;94.80;;;;;;5052684;28;20312;-73
2021/11/14 08:22:16;;;;;;;4.17;3.23;;;9.20;94.80;;;;;;5051805;28;20429;-73
2021/11/14 08:24:42;;;;;;;7.10;4.13;;;9.20;95.30;;;;;;5053888;28;20433;-73
2021/11/14 08:27:08;;;;;;;4.10;3.20;;;9.20;95.10;;;;;;5052157;28;20662;-73
2021/11/14 08:29:34;;;;;;;3.80;2.50;;;9.30;94.80;;;;;;5052644;28;20568;-72
2021/11/14 08:32:00;;;;;;;5.67;3.70;;;9.30;94.60;;;;;;5051799;28;20428;-74
2021/11/14 08:34:26;;;;;;;6.70;4.50;;;9.40;94.40;;;;;;5053019;28;20217;-73
2021/11/14 08:36:52;;;;;;;6.10;4.20;;;9.40;94.50;;;;;;5052225;28;20478;-74
2021/11/14 08:39:18;;;;;;;7.80;5.20;;;9.60;94.70;;;;;;5052885;28;20170;-73
2021/11/14 08:41:43;;;;;;;3.90;3.30;;;9.70;94.40;;;;;;5050845;28;20578;-72
2021/11/14 08:44:10;;;;;;;3.77;3.07;;;9.90;94.00;;;;;;5046979;28;20180;-73
2021/11/14 08:46:37;;;;;;;3.50;2.70;;;10.00;92.90;;;;;;5043407;28;20847;-73
2021/11/14 08:49:03;;;;;;;4.20;3.17;;;10.20;92.70;;;;;;5054055;28;20276;-73
2021/11/14 08:51:29;;;;;;;5.93;3.00;;;10.30;92.50;;;;;;5051536;28;20482;-73
2021/11/14 08:53:58;;;;;;;4.90;3.97;;;10.50;91.70;;;;;;5053439;28;20464;-73
2021/11/14 08:56:36;;;;;;;3.07;2.77;;;10.60;91.30;;;;;;5044730;28;20216;-72
2021/11/14 08:59:03;;;;;;;5.20;3.93;;;10.80;91.60;;;;;;5034045;28;20950;-72
2021/11/14 09:01:30;;;;;;;3.10;2.80;;;11.20;90.60;;;;;;5052319;28;20503;-72
2021/11/14 09:03:56;;;;;;;2.63;2.43;;;11.50;90.10;;;;;;5053506;28;20412;-73
2021/11/14 09:06:21;;;;;;;2.90;2.40;;;11.70;89.10;;;;;;5052683;28;20447;-73
2021/11/14 09:08:47;;;;;;;4.43;3.10;;;11.90;87.80;;;;;;5053009;28;20193;-73
2021/11/14 09:11:13;;;;;;;2.33;1.80;;;12.00;87.80;;;;;;5051185;28;20268;-74
2021/11/14 09:13:39;;;;;;;15.77;2.57;;;12.20;84.90;;;;;;5052557;28;20185;-72
2021/11/14 09:16:05;;;;;;;7.17;2.57;;;12.30;82.10;;;;;;5053499;28;20743;-73
2021/11/14 09:18:31;;;;;;;4.30;2.70;;;12.30;82.80;;;;;;5053292;28;20531;-74
2021/11/14 09:20:57;;;;;;;3.60;2.53;;;12.20;81.40;;;;;;5051908;28;20827;-73
2021/11/14 09:23:23;;;;;;;2.30;2.10;;;12.10;82.60;;;;;;5051771;28;20827;-74
2021/11/14 09:25:49;;;;;;;2.47;1.90;;;12.00;81.20;;;;;;5050948;28;20925;-73
2021/11/14 09:28:17;;;;;;;2.60;1.20;;;11.80;80.20;;;;;;5050048;28;20519;-72
2021/11/14 09:30:50;;;;;;;1.33;1.23;;;11.70;79.70;;;;;;5051717;28;20182;-72
2021/11/14 09:33:18;;;;;;;1.90;1.10;;;11.60;80.80;;;;;;5059807;28;21006;-73
2021/11/14 09:35:45;;;;;;;6.83;1.17;;;11.50;80.30;;;;;;5051703;28;20416;-73
2021/11/14 09:38:10;;;;;;;1.20;1.00;;;11.30;81.40;;;;;;5052515;28;20462;-74
2021/11/14 09:40:38;;;;;;;2.57;1.50;;;11.20;80.60;;;;;;5050776;28;20535;-72
2021/11/14 09:43:04;;;;;;;1.50;1.17;;;11.00;82.30;;;;;;5052697;28;20259;-74
2021/11/14 09:45:33;;;;;;;1.93;1.10;;;10.90;83.20;;;;;;5056780;28;20470;-73
2021/11/14 09:47:59;;;;;;;2.60;1.00;;;11.70;84.20;;;;;;5051561;28;20412;-72
2021/11/14 09:50:25;;;;;;;0.97;0.77;;;13.60;74.30;;;;;;5050901;28;20460;-73
2021/11/14 09:52:53;;;;;;;1.77;0.90;;;15.20;68.50;;;;;;5049497;28;20661;-71
2021/11/14 09:55:20;;;;;;;1.30;0.90;;;16.00;62.50;;;;;;5033086;28;20452;-72
2021/11/14 09:57:47;;;;;;;1.43;1.10;;;16.50;58.80;;;;;;5042507;28;20440;-73
2021/11/14 10:00:15;;;;;;;2.13;1.03;;;16.50;55.80;;;;;;5050487;28;20535;-72
2021/11/14 10:02:41;;;;;;;1.30;1.00;;;15.70;57.10;;;;;;5047664;28;20511;-73
2021/11/14 10:05:09;;;;;;;2.70;1.20;;;14.80;58.50;;;;;;5047833;28;20523;-71
2021/11/14 10:07:36;;;;;;;5.40;1.47;;;13.80;60.80;;;;;;5047641;28;20209;-72
2021/11/14 10:10:03;;;;;;;1.90;1.13;;;12.90;64.50;;;;;;5050750;28;20534;-72
2021/11/14 10:12:35;;;;;;;1.87;1.50;;;12.30;69.20;;;;;;5048544;28;20432;-72
2021/11/14 10:15:06;;;;;;;2.20;1.90;;;11.80;72.00;;;;;;5054124;28;20838;-72
2021/11/14 10:17:32;;;;;;;1.67;0.90;;;11.60;75.00;;;;;;5054285;28;20422;-71
2021/11/14 10:20:12;;;;;;;2.13;1.30;;;11.30;76.00;;;;;;5056791;28;20949;-74
2021/11/14 10:22:42;;;;;;;1.93;1.33;;;11.10;77.40;;;;;;5040716;28;20427;-74
2021/11/14 10:25:10;;;;;;;2.10;1.40;;;11.00;78.10;;;;;;5053112;28;20464;-71
2021/11/14 10:27:36;;;;;;;2.63;1.10;;;11.00;78.50;;;;;;5034816;28;20495;-73
2021/11/14 10:30:05;;;;;;;2.37;1.37;;;10.80;79.70;;;;;;5050651;28;20420;-70
2021/11/14 10:32:31;;;;;;;2.47;1.60;;;10.80;80.70;;;;;;5048353;28;20440;-70
2021/11/14 10:35:07;;;;;;;3.57;2.10;;;10.70;81.10;;;;;;5049744;28;20493;-71
2021/11/14 10:37:43;;;;;;;1.30;0.97;;;10.70;81.30;;;;;;5050560;28;20184;-71
2021/11/14 10:40:15;;;;;;;1.70;1.10;;;10.70;80.30;;;;;;5050317;28;20428;-71
2021/11/14 10:42:45;;;;;;;1.67;1.20;;;10.60;81.00;;;;;;5049048;28;20715;-72
2021/11/14 10:45:11;;;;;;;1.63;1.27;;;10.60;81.60;;;;;;5048737;28;20503;-71
2021/11/14 10:47:37;;;;;;;1.87;1.27;;;10.60;81.80;;;;;;5049525;28;20614;-70
2021/11/14 10:50:10;;;;;;;4.50;1.40;;;10.70;81.10;;;;;;5014672;28;1032985;-69
2021/11/14 10:52:37;;;;;;;2.70;1.50;;;10.80;81.20;;;;;;5048111;28;20170;-70
2021/11/14 10:55:09;;;;;;;2.70;1.50;;;10.90;79.20;;;;;;5051489;28;20457;-69
2021/11/14 10:57:37;;;;;;;3.10;1.83;;;10.90;79.20;;;;;;5051364;28;20404;-70
2021/11/14 11:00:12;;;;;;;1.60;1.10;;;10.80;78.80;;;;;;5051586;28;20787;-73
2021/11/14 11:02:48;;;;;;;2.00;1.13;;;10.80;79.60;;;;;;5051590;28;20843;-72
2021/11/14 11:05:18;;;;;;;1.87;1.00;;;10.70;79.40;;;;;;5053027;28;20434;-72
2021/11/14 11:08:01;;;;;;;2.77;1.43;;;10.80;79.60;;;;;;5053166;28;20889;-70
2021/11/14 11:10:43;;;;;;;2.80;1.80;;;11.00;79.40;;;;;;5052537;28;20511;-69
2021/11/14 11:13:17;;;;;;;1.37;1.20;;;11.10;78.80;;;;;;5041018;28;20427;-70
2021/11/14 11:15:46;;;;;;;2.70;1.40;;;11.20;78.60;;;;;;5050193;28;20434;-71
2021/11/14 11:18:23;;;;;;;1.90;1.60;;;11.30;78.50;;;;;;5051692;28;20906;-70
2021/11/14 11:20:54;;;;;;;2.57;1.90;;;11.30;77.20;;;;;;5054333;28;20797;-71
2021/11/14 11:23:23;;;;;;;2.60;1.90;;;11.40;77.50;;;;;;5054233;28;20424;-70
2021/11/14 11:25:54;;;;;;;1.97;1.60;;;11.40;77.50;;;;;;5054092;28;20439;-70
2021/11/14 11:28:22;;;;;;;1.77;1.50;;;11.40;78.00;;;;;;5053857;28;21019;-71
2021/11/14 11:30:57;;;;;;;1.60;1.43;;;11.40;77.90;;;;;;5053684;28;20431;-70
2021/11/14 11:33:25;;;;;;;1.70;1.20;;;11.50;77.00;;;;;;5053503;28;20416;-72
2021/11/14 11:35:53;;;;;;;1.87;1.30;;;11.50;76.50;;;;;;5054566;28;20501;-70
2021/11/14 11:38:20;;;;;;;2.70;2.00;;;11.50;76.70;;;;;;5053740;28;20949;-72
2021/11/14 11:40:47;;;;;;;2.37;1.80;;;11.50;76.50;;;;;;5054409;28;20446;-74
2021/11/14 11:43:14;;;;;;;2.40;1.57;;;11.40;77.00;;;;;;5055280;28;20431;-69
2021/11/14 11:45:42;;;;;;;4.87;2.80;;;11.40;76.80;;;;;;5054175;28;20507;-71
2021/11/14 11:48:19;;;;;;;3.07;2.20;;;11.40;78.20;;;;;;5056716;28;20428;-70
2021/11/14 11:50:45;;;;;;;4.13;2.33;;;11.50;77.20;;;;;;5035009;28;20440;-70
2021/11/14 11:53:26;;;;;;;2.60;2.00;;;11.50;77.10;;;;;;5054150;28;20466;-69
2021/11/14 11:56:09;;;;;;;1.40;1.20;;;11.60;76.70;;;;;;5055583;28;20917;-71
2021/11/14 11:58:46;;;;;;;2.40;1.73;;;11.60;76.50;;;;;;5053725;28;20952;-72
2021/11/14 12:01:27;;;;;;;3.07;2.07;;;11.50;75.90;;;;;;5053670;28;20963;-72
2021/11/14 12:04:08;;;;;;;2.90;1.90;;;11.40;76.20;;;;;;5054231;28;20422;-70
2021/11/14 12:06:43;;;;;;;2.00;1.43;;;11.30;76.40;;;;;;5054176;28;20814;-73
2021/11/14 12:09:11;;;;;;;3.50;2.10;;;11.20;77.60;;;;;;5052053;28;20473;-71
2021/11/14 12:11:40;;;;;;;1.70;1.30;;;11.10;77.40;;;;;;5051467;28;20826;-70
2021/11/14 12:14:28;;;;;;;2.70;1.90;;;11.10;78.20;;;;;;5054227;28;20467;-71
2021/11/14 12:17:00;;;;;;;2.83;1.90;;;11.10;78.90;;;;;;5062551;28;20486;-71
2021/11/14 12:19:30;;;;;;;2.07;1.87;;;11.20;78.40;;;;;;5050711;28;20458;-69
2021/11/14 12:22:00;;;;;;;2.13;1.67;;;11.20;78.80;;;;;;5050909;28;20412;-70
2021/11/14 12:24:27;;;;;;;2.13;1.90;;;11.10;78.20;;;;;;5052670;28;20436;-71
2021/11/14 12:26:53;;;;;;;1.80;1.30;;;11.10;78.60;;;;;;5054212;28;20809;-74
2021/11/14 12:29:40;;;;;;;4.50;1.50;;;11.10;78.80;;;;;;5054276;28;20693;-69
2021/11/14 12:32:17;;;;;;;1.80;1.40;;;11.10;78.60;;;;;;5052233;28;20192;-71
2021/11/14 12:34:43;;;;;;;2.50;1.80;;;11.10;78.80;;;;;;5054227;28;20456;-72
2021/11/14 12:37:12;;;;;;;1.23;1.00;;;11.10;78.90;;;;;;5051167;28;20438;-70
2021/11/14 12:39:40;;;;;;;2.43;1.40;;;11.20;78.70;;;;;;5052217;28;20549;-72
2021/11/14 12:42:15;;;;;;;1.93;1.30;;;11.20;78.60;;;;;;5053450;28;20405;-69
2021/11/14 12:44:49;;;;;;;2.90;1.30;;;11.30;78.00;;;;;;5052800;28;20925;-71
2021/11/14 12:47:17;;;;;;;2.00;1.33;;;11.30;77.50;;;;;;5053784;28;20400;-69
2021/11/14 12:49:47;;;;;;;2.30;1.47;;;11.30;77.00;;;;;;5052678;28;20623;-70
2021/11/14 12:52:23;;;;;;;7.27;2.70;;;11.30;77.30;;;;;;5052810;28;20945;-71
2021/11/14 12:54:53;;;;;;;1.87;1.43;;;11.30;77.90;;;;;;5053850;28;20495;-72
2021/11/14 12:57:20;;;;;;;1.47;1.10;;;11.30;78.20;;;;;;5053655;28;20407;-72
2021/11/14 12:59:48;;;;;;;2.97;2.00;;;11.30;77.90;;;;;;5051552;28;20593;-71
2021/11/14 13:02:22;;;;;;;1.77;1.43;;;11.30;78.10;;;;;;5051005;28;20435;-68